createdAt,value
2023-01-04T00:01:21.147Z,6.18
2023-01-04T00:03:47.710Z,5.40
2023-01-04T00:06:16.367Z,5.18
2023-01-04T00:08:42.801Z,5.30
2023-01-04T00:11:15.146Z,5.13
2023-01-04T00:13:41.606Z,6.50
2023-01-04T00:16:11.867Z,3.75
2023-01-04T00:18:38.551Z,4.85
2023-01-04T00:21:16.258Z,2.00
2023-01-04T00:23:44.439Z,3.58
2023-01-04T00:26:18.984Z,7.53
2023-01-04T00:28:51.732Z,5.07
2023-01-04T00:31:21.074Z,4.78
2023-01-04T00:33:47.647Z,2.92
2023-01-04T00:36:14.840Z,3.72
2023-01-04T00:38:42.094Z,5.15
2023-01-04T00:41:23.168Z,3.33
2023-01-04T00:43:54.734Z,3.65
2023-01-04T00:46:21.079Z,5.35
2023-01-04T00:48:49.032Z,5.30
2023-01-04T00:51:15.619Z,4.57
2023-01-04T00:53:41.967Z,4.90
2023-01-04T00:56:08.317Z,5.80
2023-01-04T00:58:34.665Z,6.88
2023-01-04T01:01:08.580Z,4.70
2023-01-04T01:03:38.741Z,3.97
2023-01-04T01:06:07.624Z,5.75
2023-01-04T01:08:34.395Z,3.75
2023-01-04T01:11:05.987Z,6.50
2023-01-04T01:13:32.474Z,6.97
2023-01-04T01:16:06.505Z,4.55
2023-01-04T01:18:34.693Z,5.80
2023-01-04T01:21:05.111Z,3.72
2023-01-04T01:23:31.442Z,6.13
2023-01-04T01:26:02.211Z,6.03
2023-01-04T01:28:29.277Z,3.20
2023-01-04T01:30:56.429Z,3.58
2023-01-04T01:33:22.811Z,5.13
2023-01-04T01:35:49.335Z,6.00
2023-01-04T01:38:15.658Z,5.35
2023-01-04T01:40:42.988Z,5.32
2023-01-04T01:43:20.662Z,6.82
2023-01-04T01:45:52.259Z,3.38
2023-01-04T01:48:25.132Z,3.83
2023-01-04T01:50:56.251Z,4.07
2023-01-04T01:53:24.563Z,4.22
2023-01-04T01:55:52.508Z,4.55
2023-01-04T01:58:26.550Z,3.90
2023-01-04T02:00:52.869Z,3.95
2023-01-04T02:03:22.419Z,6.72
2023-01-04T02:05:53.964Z,4.00
2023-01-04T02:08:24.185Z,7.97
2023-01-04T02:10:50.839Z,4.80
2023-01-04T02:13:47.702Z,5.40
2023-01-04T02:16:25.994Z,7.15
2023-01-04T02:19:07.008Z,4.00
2023-01-04T02:21:59.090Z,2.75
2023-01-04T02:25:08.139Z,3.00
2023-01-04T02:27:43.225Z,2.55
2023-01-04T02:30:23.661Z,4.50
2023-01-04T02:33:13.973Z,3.80
2023-01-04T02:35:49.980Z,5.93
2023-01-04T02:38:25.325Z,4.70
2023-01-04T02:41:14.801Z,5.22
2023-01-04T02:44:15.271Z,4.28
2023-01-04T02:46:49.024Z,3.88
2023-01-04T02:49:50.804Z,6.13
2023-01-04T02:52:18.098Z,4.43
2023-01-04T02:54:46.209Z,3.22
2023-01-04T02:57:21.906Z,4.03
2023-01-04T03:00:10.286Z,3.58
2023-01-04T03:03:24.619Z,5.90
2023-01-04T03:06:20.619Z,5.63
2023-01-04T03:09:09.001Z,2.87
2023-01-04T03:12:04.444Z,3.97
2023-01-04T03:14:36.528Z,5.05
2023-01-04T03:17:12.437Z,4.20
2023-01-04T03:19:57.245Z,3.42
2023-01-04T03:23:04.448Z,5.25
2023-01-04T03:28:46.828Z,3.88
2023-01-04T03:31:47.748Z,3.47
2023-01-04T03:34:41.478Z,3.88
2023-01-04T03:37:23.510Z,2.45
2023-01-04T03:40:35.504Z,3.08
2023-01-04T03:43:32.901Z,4.47
2023-01-04T03:46:36.351Z,3.20
2023-01-04T03:49:14.486Z,5.03
2023-01-04T03:51:42.606Z,7.88
2023-01-04T03:54:19.189Z,4.45
2023-01-04T03:56:48.023Z,3.05
2023-01-04T03:59:14.493Z,3.83
2023-01-04T04:01:44.055Z,3.88
2023-01-04T04:04:29.800Z,2.85
2023-01-04T04:07:14.719Z,4.85
2023-01-04T04:09:41.080Z,3.00
2023-01-04T04:12:07.425Z,3.80
2023-01-04T04:14:34.068Z,6.05
2023-01-04T04:17:00.466Z,4.40
2023-01-04T04:19:26.917Z,2.92
2023-01-04T04:21:53.380Z,2.67
2023-01-04T04:24:24.468Z,3.85
2023-01-04T04:26:54.385Z,3.67
2023-01-04T04:29:21.575Z,2.25
2023-01-04T04:31:48.051Z,2.10
2023-01-04T04:34:14.504Z,2.60
2023-01-04T04:36:40.861Z,2.97
2023-01-04T04:39:07.329Z,1.52
2023-01-04T04:41:39.716Z,2.75
2023-01-04T04:44:11.790Z,2.70
2023-01-04T04:46:38.670Z,1.92
2023-01-04T04:49:06.091Z,2.13
2023-01-04T04:51:33.093Z,2.40
2023-01-04T04:53:59.667Z,1.40
2023-01-04T04:56:26.113Z,2.17
2023-01-04T04:58:52.750Z,1.92
2023-01-04T05:01:19.408Z,4.60
2023-01-04T05:03:45.975Z,3.10
2023-01-04T05:06:13.225Z,3.40
2023-01-04T05:08:39.635Z,2.70
2023-01-04T05:11:07.345Z,2.90
2023-01-04T05:13:34.436Z,4.40
2023-01-04T05:16:02.000Z,4.03
2023-01-04T05:18:28.544Z,2.45
2023-01-04T05:20:54.903Z,2.25
2023-01-04T05:23:22.119Z,2.17
2023-01-04T05:26:01.151Z,2.20
2023-01-04T05:28:27.996Z,2.88
2023-01-04T05:30:55.735Z,4.20
2023-01-04T05:33:28.296Z,3.70
2023-01-04T05:35:56.471Z,3.25
2023-01-04T05:38:23.275Z,2.83
2023-01-04T05:40:50.454Z,4.32
2023-01-04T05:43:18.591Z,2.53
2023-01-04T05:45:48.728Z,1.50
2023-01-04T05:48:15.212Z,5.75
2023-01-04T05:50:41.590Z,2.40
2023-01-04T05:53:07.977Z,2.70
2023-01-04T05:55:34.351Z,4.05
2023-01-04T05:58:00.842Z,2.83
2023-01-04T06:00:27.357Z,2.38
2023-01-04T06:02:55.323Z,2.22
2023-01-04T06:05:22.384Z,2.75
2023-01-04T06:07:48.875Z,2.92
2023-01-04T06:10:15.405Z,3.38
2023-01-04T06:12:42.218Z,2.40
2023-01-04T06:15:10.544Z,4.38
2023-01-04T06:17:37.512Z,2.72
2023-01-04T06:20:05.378Z,3.22
2023-01-04T06:22:32.853Z,3.38
2023-01-04T06:24:59.436Z,3.38
2023-01-04T06:27:25.765Z,3.50
2023-01-04T06:29:53.037Z,2.50
2023-01-04T06:32:19.381Z,2.40
2023-01-04T06:34:45.704Z,3.10
2023-01-04T06:37:12.219Z,3.15
2023-01-04T06:39:39.492Z,3.25
2023-01-04T06:42:07.131Z,2.60
2023-01-04T06:44:34.151Z,2.78
2023-01-04T06:47:00.565Z,5.00
2023-01-04T06:49:27.100Z,3.65
2023-01-04T06:51:53.494Z,3.13
2023-01-04T06:54:19.907Z,3.40
2023-01-04T06:56:46.372Z,3.70
2023-01-04T06:59:12.701Z,3.40
2023-01-04T07:01:39.095Z,3.70
2023-01-04T07:04:05.626Z,4.07
2023-01-04T07:06:31.990Z,3.45
2023-01-04T07:08:58.424Z,3.80
2023-01-04T07:11:24.941Z,4.15
2023-01-04T07:13:52.672Z,3.33
2023-01-04T07:16:19.603Z,3.28
2023-01-04T07:18:46.037Z,3.78
2023-01-04T07:21:12.407Z,3.42
2023-01-04T07:23:38.838Z,3.30
2023-01-04T07:26:05.420Z,3.08
2023-01-04T07:28:50.477Z,2.92
2023-01-04T07:31:17.035Z,5.20
2023-01-04T07:33:43.471Z,3.33
2023-01-04T07:36:10.003Z,3.58
2023-01-04T07:38:36.655Z,5.38
2023-01-04T07:41:03.025Z,6.13
2023-01-04T07:43:29.359Z,3.45
2023-01-04T07:45:56.208Z,3.92
2023-01-04T07:48:23.858Z,2.60
2023-01-04T07:50:50.434Z,2.85
2023-01-04T07:53:17.156Z,3.15
2023-01-04T07:55:43.617Z,4.18
2023-01-04T07:58:10.030Z,2.35
2023-01-04T08:00:36.559Z,3.17
2023-01-04T08:03:03.211Z,2.35
2023-01-04T08:05:32.485Z,4.53
2023-01-04T08:07:59.000Z,2.28
2023-01-04T08:10:25.407Z,2.70
2023-01-04T08:12:51.737Z,3.50
2023-01-04T08:15:18.181Z,2.70
2023-01-04T08:17:44.511Z,2.35
2023-01-04T08:20:11.611Z,2.67
2023-01-04T08:22:37.993Z,2.28
2023-01-04T08:25:06.100Z,2.55
2023-01-04T08:27:33.099Z,3.55
2023-01-04T08:29:59.493Z,2.50
2023-01-04T08:32:25.990Z,2.10
2023-01-04T08:34:53.461Z,2.60
2023-01-04T08:37:20.380Z,3.30
2023-01-04T08:39:49.212Z,6.28
2023-01-04T08:42:24.737Z,2.75
2023-01-04T08:44:59.130Z,2.95
2023-01-04T08:47:26.062Z,2.00
2023-01-04T08:49:52.401Z,2.20
2023-01-04T08:52:18.854Z,2.03
2023-01-04T08:54:45.181Z,2.42
2023-01-04T08:57:11.526Z,2.15
2023-01-04T08:59:38.017Z,2.80
2023-01-04T09:02:06.063Z,2.10
2023-01-04T09:04:33.047Z,1.85
2023-01-04T09:06:59.578Z,4.05
2023-01-04T09:09:25.928Z,1.95
2023-01-04T09:11:52.255Z,2.00
2023-01-04T09:14:18.662Z,1.95
2023-01-04T09:16:45.190Z,2.00
2023-01-04T09:19:15.072Z,3.83
2023-01-04T09:21:44.523Z,2.47
2023-01-04T09:24:10.909Z,3.30
2023-01-04T09:26:37.318Z,3.25
2023-01-04T09:29:04.221Z,3.45
2023-01-04T09:31:30.843Z,2.90
2023-01-04T09:34:16.176Z,2.50
2023-01-04T09:36:44.102Z,2.47
2023-01-04T09:39:16.764Z,2.53
2023-01-04T09:41:52.900Z,2.75
2023-01-04T09:45:21.251Z,4.28
2023-01-04T09:47:39.759Z,2.78
2023-01-04T09:50:27.263Z,4.28
2023-01-04T09:52:53.562Z,2.42
2023-01-04T09:55:38.971Z,2.20
2023-01-04T09:58:22.133Z,2.30
2023-01-04T10:01:00.319Z,2.25
2023-01-04T10:03:33.510Z,2.63
2023-01-04T10:06:01.002Z,2.20
2023-01-04T10:08:27.948Z,1.80
2023-01-04T10:11:05.917Z,3.78
2023-01-04T10:14:00.118Z,2.40
2023-01-04T10:21:12.880Z,2.53
2023-01-04T10:23:02.917Z,2.28
2023-01-04T10:25:42.309Z,2.15
2023-01-04T10:28:45.949Z,2.00
2023-01-04T10:31:39.385Z,2.33
2023-01-04T10:34:27.239Z,2.58
2023-01-04T10:37:21.687Z,1.42
2023-01-04T10:39:55.044Z,1.65
2023-01-04T10:42:33.417Z,2.05
2023-01-04T10:45:08.496Z,2.10
2023-01-04T10:47:45.848Z,1.48
2023-01-04T10:50:39.421Z,1.63
2023-01-04T10:53:23.478Z,1.17
2023-01-04T10:56:25.813Z,3.72
2023-01-04T10:58:55.347Z,1.10
2023-01-04T11:01:30.640Z,1.70
2023-01-04T11:04:12.689Z,1.30
2023-01-04T11:07:03.258Z,1.25
2023-01-04T11:09:35.261Z,2.60
2023-01-04T11:12:02.837Z,0.88
2023-01-04T11:14:35.098Z,1.17
2023-01-04T11:17:07.110Z,2.10
2023-01-04T11:19:34.165Z,0.73
2023-01-04T11:22:06.310Z,1.10
2023-01-04T11:24:34.258Z,2.70
2023-01-04T11:27:14.025Z,1.20
2023-01-04T11:29:58.594Z,0.75
2023-01-04T11:32:37.778Z,0.70
2023-01-04T11:35:04.873Z,3.72
2023-01-04T11:37:33.765Z,1.00
2023-01-04T11:40:18.435Z,1.15
2023-01-04T11:43:01.384Z,0.60
2023-01-04T11:45:28.435Z,0.93
2023-01-04T11:47:57.534Z,1.23
2023-01-04T11:50:37.681Z,0.80
2023-01-04T11:53:22.649Z,1.25
2023-01-04T11:55:49.124Z,0.82
2023-01-04T11:58:17.641Z,1.15
2023-01-04T12:00:53.080Z,0.90
2023-01-04T12:03:29.947Z,1.95
2023-01-04T12:05:57.411Z,1.05
2023-01-04T12:08:34.172Z,1.15
2023-01-04T12:11:04.239Z,2.45
2023-01-04T12:13:33.397Z,1.77
2023-01-04T12:16:28.227Z,1.10
2023-01-04T12:18:54.675Z,0.50
2023-01-04T12:21:23.720Z,1.23
2023-01-04T12:23:52.060Z,0.77
2023-01-04T12:26:19.726Z,1.38
2023-01-04T12:28:58.274Z,0.80
2023-01-04T12:31:25.004Z,0.93
2023-01-04T12:33:58.768Z,2.00
2023-01-04T12:36:51.185Z,0.90
2023-01-04T12:39:40.053Z,1.50
2023-01-04T12:42:17.412Z,0.60
2023-01-04T12:44:43.715Z,0.68
2023-01-04T12:47:34.972Z,1.10
2023-01-04T12:50:09.112Z,0.63
2023-01-04T12:53:19.431Z,1.20
2023-01-04T12:55:39.203Z,2.05
2023-01-04T12:58:42.359Z,1.23
2023-01-04T13:01:25.555Z,1.38
2023-01-04T13:04:16.558Z,1.52
2023-01-04T13:06:45.799Z,1.27
2023-01-04T13:09:25.063Z,1.42
2023-01-04T13:12:12.560Z,0.73
2023-01-04T13:14:51.506Z,1.17
2023-01-04T13:17:22.320Z,1.27
2023-01-04T13:19:49.501Z,0.98
2023-01-04T13:22:24.910Z,0.40
2023-01-04T13:24:57.513Z,0.82
2023-01-04T13:27:24.589Z,2.15
2023-01-04T13:29:52.046Z,1.45
2023-01-04T13:32:23.801Z,1.08
2023-01-04T13:34:52.349Z,1.92
2023-01-04T13:37:47.005Z,1.67
2023-01-04T13:40:26.482Z,1.20
2023-01-04T13:43:29.572Z,0.55
2023-01-04T13:49:01.593Z,2.47
2023-01-04T13:51:37.083Z,1.98
2023-01-04T13:54:07.236Z,1.98
2023-01-04T13:56:34.810Z,0.93
2023-01-04T13:59:01.419Z,1.00
2023-01-04T14:01:32.351Z,1.98
2023-01-04T14:04:07.346Z,2.05
2023-01-04T14:06:41.416Z,0.65
2023-01-04T14:09:10.681Z,2.03
2023-01-04T14:12:05.691Z,2.58
2023-01-04T14:14:37.226Z,2.97
2023-01-04T14:17:12.608Z,3.47
2023-01-04T14:19:43.603Z,2.90
2023-01-04T14:22:34.063Z,2.78
2023-01-04T14:25:22.606Z,2.63
2023-01-04T14:27:48.977Z,3.15
2023-01-04T14:30:18.192Z,5.35
2023-01-04T14:33:02.527Z,4.55
2023-01-04T14:35:30.038Z,3.10
2023-01-04T14:38:04.535Z,1.88
2023-01-04T14:40:34.095Z,2.92
2023-01-04T14:43:00.535Z,4.18
2023-01-04T14:45:26.966Z,4.50
2023-01-04T14:47:53.404Z,3.17
2023-01-04T14:50:20.368Z,3.88
2023-01-04T14:52:54.180Z,5.07
2023-01-04T14:55:23.155Z,5.18
2023-01-04T14:57:49.587Z,2.95
2023-01-04T15:00:19.726Z,4.43
2023-01-04T15:02:50.098Z,3.70
2023-01-04T15:05:20.146Z,4.28
2023-01-04T15:07:46.867Z,5.75
2023-01-04T15:10:24.234Z,3.65
2023-01-04T15:12:50.584Z,4.22
2023-01-04T15:15:17.049Z,5.40
2023-01-04T15:17:43.659Z,5.25
2023-01-04T15:20:10.291Z,5.45
2023-01-04T15:22:38.621Z,8.27
2023-01-04T15:25:09.653Z,2.67
2023-01-04T15:27:41.930Z,4.93
2023-01-04T15:30:10.726Z,3.65
2023-01-04T15:32:37.058Z,2.55
2023-01-04T15:35:03.791Z,4.95
2023-01-04T15:37:30.203Z,5.28
2023-01-04T15:40:01.941Z,6.90
2023-01-04T15:42:47.879Z,3.65
2023-01-04T15:45:14.237Z,3.03
2023-01-04T15:47:40.600Z,2.25
2023-01-04T15:50:07.386Z,4.80
2023-01-04T15:52:33.976Z,2.10
2023-01-04T15:55:00.377Z,3.30
2023-01-04T15:57:26.795Z,4.75
2023-01-04T15:59:53.211Z,2.90
2023-01-04T16:02:19.703Z,3.75
2023-01-04T16:04:47.341Z,3.53
2023-01-04T16:07:13.855Z,5.07
2023-01-04T16:09:40.350Z,4.95
2023-01-04T16:12:25.759Z,3.25
2023-01-04T16:14:52.728Z,5.00
2023-01-04T16:17:19.351Z,3.75
2023-01-04T16:19:45.689Z,4.45
2023-01-04T16:22:12.203Z,4.63
2023-01-04T16:25:09.956Z,3.60
2023-01-04T16:27:29.654Z,4.28
2023-01-04T16:30:00.378Z,5.35
2023-01-04T16:32:26.830Z,4.90
2023-01-04T16:34:53.594Z,8.13
2023-01-04T16:37:20.518Z,5.78
2023-01-04T16:40:05.797Z,4.35
2023-01-04T16:42:32.684Z,6.00
2023-01-04T16:44:59.053Z,6.32
2023-01-04T16:47:25.401Z,6.72
2023-01-04T16:49:52.282Z,5.32
2023-01-04T16:52:18.782Z,7.38
2023-01-04T16:54:45.127Z,7.25
2023-01-04T16:57:11.466Z,5.65
2023-01-04T16:59:37.912Z,6.00
2023-01-04T17:02:04.374Z,4.80
2023-01-04T17:04:30.813Z,6.97
2023-01-04T17:06:58.196Z,5.43
2023-01-04T17:09:24.750Z,7.75
2023-01-04T17:12:46.162Z,5.90
2023-01-04T17:14:43.386Z,8.95
2023-01-04T17:17:10.118Z,4.57
2023-01-04T17:19:36.579Z,9.63
2023-01-04T17:22:02.991Z,8.75
2023-01-04T17:24:29.495Z,6.30
2023-01-04T17:26:55.831Z,7.95
2023-01-04T17:29:22.229Z,7.10
2023-01-04T17:31:48.734Z,5.80
2023-01-04T17:34:22.485Z,7.97
2023-01-04T17:36:49.879Z,9.02
2023-01-04T17:39:16.269Z,6.32
2023-01-04T17:41:42.733Z,7.03
2023-01-04T17:44:10.360Z,10.18
2023-01-04T17:46:37.372Z,9.57
2023-01-04T17:49:24.128Z,5.72
2023-01-04T17:51:54.417Z,12.70
2023-01-04T17:54:21.184Z,8.18
2023-01-04T17:56:47.565Z,9.55
2023-01-04T17:59:14.039Z,7.63
2023-01-04T18:01:40.843Z,8.57
2023-01-04T18:04:08.888Z,8.13
2023-01-04T18:06:36.634Z,14.73
2023-01-04T18:09:07.251Z,10.77
2023-01-04T18:11:35.183Z,10.82
2023-01-04T18:14:05.786Z,8.65
2023-01-04T18:16:55.753Z,10.10
2023-01-04T18:21:50.037Z,8.18
2023-01-04T18:24:35.441Z,10.73
2023-01-04T18:27:20.915Z,9.02
2023-01-04T18:29:48.759Z,10.32
2023-01-04T18:32:15.211Z,9.85
2023-01-04T18:34:41.586Z,9.95
2023-01-04T18:37:07.971Z,10.82
2023-01-04T18:39:34.410Z,13.98
2023-01-04T18:42:00.884Z,15.30
2023-01-04T18:44:35.478Z,12.60
2023-01-04T18:47:03.137Z,10.63
2023-01-04T18:49:29.499Z,11.30
2023-01-04T18:51:55.898Z,13.55
2023-01-04T18:54:22.429Z,12.77
2023-01-04T18:56:49.113Z,13.80
2023-01-04T18:59:18.990Z,14.73
2023-01-04T19:01:45.900Z,11.82
2023-01-04T19:04:13.508Z,16.80
2023-01-04T19:06:40.838Z,15.23
2023-01-04T19:09:07.662Z,14.90
2023-01-04T19:11:34.932Z,15.35
2023-01-04T19:14:01.910Z,11.45
2023-01-04T19:16:30.971Z,10.80
2023-01-04T19:18:59.679Z,14.32
2023-01-04T19:21:26.368Z,18.40
2023-01-04T19:23:52.931Z,13.45
2023-01-04T19:26:20.501Z,13.70
2023-01-04T19:28:47.106Z,13.43
2023-01-04T19:31:14.223Z,16.25
2023-01-04T19:33:40.696Z,17.15
2023-01-04T19:36:09.391Z,14.88
2023-01-04T19:38:36.955Z,17.70
2023-01-04T19:41:05.126Z,15.43
2023-01-04T19:43:31.925Z,14.48
2023-01-04T19:45:58.877Z,18.90
2023-01-04T19:48:25.286Z,16.63
2023-01-04T19:51:10.557Z,18.58
2023-01-04T19:53:37.737Z,14.52
2023-01-04T19:56:04.358Z,17.60
2023-01-04T19:58:31.127Z,17.55
2023-01-04T20:00:57.548Z,18.90
2023-01-04T20:03:27.596Z,14.18
2023-01-04T20:05:54.831Z,14.93
2023-01-04T20:08:21.963Z,18.48
2023-01-04T20:10:59.439Z,13.75
2023-01-04T20:13:30.350Z,19.63
2023-01-04T20:15:56.781Z,17.33
2023-01-04T20:18:26.243Z,15.30
2023-01-04T20:20:52.686Z,18.08
2023-01-04T20:23:21.645Z,18.92
2023-01-04T20:25:50.433Z,17.55
2023-01-04T20:28:19.640Z,18.60
2023-01-04T20:30:46.959Z,13.18
2023-01-04T20:33:13.435Z,16.33
2023-01-04T20:35:42.838Z,20.55
2023-01-04T20:38:10.596Z,14.93
2023-01-04T20:40:38.663Z,17.02
2023-01-04T20:43:23.976Z,20.35
2023-01-04T20:45:50.428Z,21.20
2023-01-04T20:48:17.041Z,18.75
2023-01-04T20:50:43.660Z,25.05
2023-01-04T20:53:11.898Z,21.25
2023-01-04T20:55:44.389Z,21.63
2023-01-04T20:58:13.502Z,27.75
2023-01-04T21:00:41.173Z,16.55
2023-01-04T21:03:09.627Z,22.65
2023-01-04T21:05:38.031Z,18.35
2023-01-04T21:08:04.909Z,22.75
2023-01-04T21:10:31.791Z,22.10
2023-01-04T21:12:58.233Z,18.92
2023-01-04T21:15:24.596Z,27.98
2023-01-04T21:17:51.008Z,22.67
2023-01-04T21:20:17.464Z,17.58
2023-01-04T21:22:43.812Z,17.23
2023-01-04T21:25:10.159Z,20.92
2023-01-04T21:27:36.601Z,25.05
2023-01-04T21:30:03.244Z,23.50
2023-01-04T21:32:30.426Z,22.92
2023-01-04T21:34:57.058Z,22.08
2023-01-04T21:37:31.020Z,25.95
2023-01-04T21:39:59.242Z,24.13
2023-01-04T21:42:25.593Z,24.88
2023-01-04T21:44:54.354Z,21.67
2023-01-04T21:47:23.670Z,17.27
2023-01-04T21:49:50.928Z,23.25
2023-01-04T21:52:17.735Z,20.85
2023-01-04T21:54:44.060Z,23.40
2023-01-04T21:57:11.240Z,25.52
2023-01-04T21:59:38.494Z,21.17
2023-01-04T22:02:05.716Z,22.63
2023-01-04T22:04:33.709Z,21.70
2023-01-04T22:07:03.670Z,21.10
2023-01-04T22:09:30.190Z,23.95
2023-01-04T22:11:56.640Z,22.23
2023-01-04T22:14:23.026Z,29.23
2023-01-04T22:16:49.504Z,22.95
2023-01-04T22:19:15.959Z,27.10
2023-01-04T22:21:43.579Z,22.67
2023-01-04T22:24:14.433Z,25.65
2023-01-04T22:26:42.006Z,26.02
2023-01-04T22:29:09.652Z,22.90
2023-01-04T22:31:36.317Z,18.30
2023-01-04T22:34:02.876Z,19.02
2023-01-04T22:36:29.392Z,21.55
2023-01-04T22:38:57.558Z,19.70
2023-01-04T22:41:29.177Z,21.42
2023-01-04T22:44:06.329Z,21.63
2023-01-04T22:46:35.203Z,25.17
2023-01-04T22:49:04.158Z,22.38
2023-01-04T22:51:31.543Z,26.88
2023-01-04T22:54:00.718Z,23.35
2023-01-04T22:56:28.089Z,22.20
2023-01-04T22:58:56.383Z,25.98
2023-01-04T23:01:25.360Z,30.35
2023-01-04T23:03:52.910Z,24.67
2023-01-04T23:06:20.488Z,26.70
2023-01-04T23:08:47.125Z,21.77
2023-01-04T23:11:16.430Z,17.27
2023-01-04T23:13:43.656Z,25.27
2023-01-04T23:16:15.577Z,21.73
2023-01-04T23:18:42.504Z,20.48
2023-01-04T23:21:09.705Z,23.08
2023-01-04T23:23:36.604Z,23.63
2023-01-04T23:26:11.202Z,23.23
2023-01-04T23:28:37.896Z,22.17
2023-01-04T23:31:07.156Z,17.75
2023-01-04T23:33:36.505Z,20.00
2023-01-04T23:36:24.423Z,24.02
2023-01-04T23:38:53.581Z,24.73
2023-01-04T23:41:20.735Z,22.20
2023-01-04T23:44:08.728Z,18.70
2023-01-04T23:46:35.971Z,24.10
2023-01-04T23:49:02.313Z,21.23
2023-01-04T23:51:28.705Z,22.13
2023-01-04T23:53:55.038Z,27.20
2023-01-04T23:56:21.542Z,24.83
2023-01-04T23:58:47.936Z,25.98
